sensor_id;sensor_type;location;lat;lon;timestamp;pressure;altitude;pressure_sealevel;temperature;humidity
74881;BME280;63427;49.654;6.596;2023-04-25T00:02:10;99139.00;;;12.09;41.15
74881;BME280;63427;49.654;6.596;2023-04-25T00:04:36;99145.42;;;11.48;41.14
74881;BME280;63427;49.654;6.596;2023-04-25T00:07:02;99147.76;;;11.91;40.96
74881;BME280;63427;49.654;6.596;2023-04-25T00:09:27;99145.42;;;11.83;41.49
74881;BME280;63427;49.654;6.596;2023-04-25T00:11:52;99143.22;;;12.10;40.52
74881;BME280;63427;49.654;6.596;2023-04-25T00:14:18;99141.70;;;12.08;41.22
74881;BME280;63427;49.654;6.596;2023-04-25T00:16:43;99137.34;;;12.08;41.62
74881;BME280;63427;49.654;6.596;2023-04-25T00:19:08;99136.86;;;12.09;41.55
74881;BME280;63427;49.654;6.596;2023-04-25T00:21:41;99137.17;;;11.86;40.65
74881;BME280;63427;49.654;6.596;2023-04-25T00:23:59;99135.59;;;11.88;41.25
74881;BME280;63427;49.654;6.596;2023-04-25T00:26:27;99136.33;;;12.18;41.20
74881;BME280;63427;49.654;6.596;2023-04-25T00:28:51;99132.73;;;11.76;41.46
74881;BME280;63427;49.654;6.596;2023-04-25T00:31:16;99137.31;;;11.62;41.47
74881;BME280;63427;49.654;6.596;2023-04-25T00:33:42;99140.76;;;11.76;41.36
74881;BME280;63427;49.654;6.596;2023-04-25T00:36:08;99145.63;;;11.69;42.10
74881;BME280;63427;49.654;6.596;2023-04-25T00:38:33;99146.01;;;11.92;42.27
74881;BME280;63427;49.654;6.596;2023-04-25T00:40:58;99146.32;;;12.01;40.93
74881;BME280;63427;49.654;6.596;2023-04-25T00:43:25;99142.81;;;11.96;41.47
74881;BME280;63427;49.654;6.596;2023-04-25T00:45:51;99139.55;;;12.06;42.15
74881;BME280;63427;49.654;6.596;2023-04-25T00:48:15;99138.90;;;12.16;41.67
74881;BME280;63427;49.654;6.596;2023-04-25T00:50:43;99136.90;;;11.88;41.93
74881;BME280;63427;49.654;6.596;2023-04-25T00:53:06;99134.22;;;12.09;41.80
74881;BME280;63427;49.654;6.596;2023-04-25T00:55:32;99131.27;;;11.82;41.38
74881;BME280;63427;49.654;6.596;2023-04-25T00:57:56;99132.34;;;12.05;41.43
74881;BME280;63427;49.654;6.596;2023-04-25T01:00:22;99129.29;;;12.15;40.77
74881;BME280;63427;49.654;6.596;2023-04-25T01:02:47;99128.63;;;11.85;41.68
74881;BME280;63427;49.654;6.596;2023-04-25T01:05:12;99125.15;;;11.80;41.26
74881;BME280;63427;49.654;6.596;2023-04-25T01:07:38;99119.19;;;12.01;42.33
74881;BME280;63427;49.654;6.596;2023-04-25T01:10:05;99118.78;;;11.98;42.29
74881;BME280;63427;49.654;6.596;2023-04-25T01:12:29;99118.95;;;11.78;42.49
74881;BME280;63427;49.654;6.596;2023-04-25T01:14:55;99119.65;;;11.88;42.56
74881;BME280;63427;49.654;6.596;2023-04-25T01:17:21;99115.60;;;11.94;42.81
74881;BME280;63427;49.654;6.596;2023-04-25T01:19:46;99111.89;;;12.00;42.40
74881;BME280;63427;49.654;6.596;2023-04-25T01:22:12;99105.54;;;11.68;42.07
74881;BME280;63427;49.654;6.596;2023-04-25T01:24:37;99105.49;;;11.92;42.05
74881;BME280;63427;49.654;6.596;2023-04-25T01:27:03;99107.16;;;12.12;41.42
74881;BME280;63427;49.654;6.596;2023-04-25T01:29:28;99108.16;;;11.94;41.55
74881;BME280;63427;49.654;6.596;2023-04-25T01:31:54;99103.93;;;11.91;41.11
74881;BME280;63427;49.654;6.596;2023-04-25T01:34:19;99100.24;;;11.86;41.60
74881;BME280;63427;49.654;6.596;2023-04-25T01:36:45;99099.40;;;11.93;41.62
74881;BME280;63427;49.654;6.596;2023-04-25T01:39:11;99094.33;;;11.74;42.27
74881;BME280;63427;49.654;6.596;2023-04-25T01:41:36;99090.77;;;11.85;41.85
74881;BME280;63427;49.654;6.596;2023-04-25T01:44:02;99089.30;;;11.75;42.95
74881;BME280;63427;49.654;6.596;2023-04-25T01:46:28;99090.99;;;11.67;43.01
74881;BME280;63427;49.654;6.596;2023-04-25T01:48:52;99091.61;;;11.47;42.50
74881;BME280;63427;49.654;6.596;2023-04-25T01:51:18;99096.41;;;11.28;43.25
74881;BME280;63427;49.654;6.596;2023-04-25T01:53:44;99100.19;;;11.50;42.99
74881;BME280;63427;49.654;6.596;2023-04-25T01:56:09;99098.42;;;11.63;42.89
74881;BME280;63427;49.654;6.596;2023-04-25T01:58:35;99096.15;;;11.94;42.08
74881;BME280;63427;49.654;6.596;2023-04-25T02:10:43;99101.87;;;11.37;42.50
74881;BME280;63427;49.654;6.596;2023-04-25T02:13:08;99098.06;;;11.78;41.20
74881;BME280;63427;49.654;6.596;2023-04-25T02:15:33;99099.95;;;11.73;41.85
74881;BME280;63427;49.654;6.596;2023-04-25T02:17:59;99103.20;;;11.89;40.96
74881;BME280;63427;49.654;6.596;2023-04-25T02:20:24;99107.41;;;11.72;41.69
74881;BME280;63427;49.654;6.596;2023-04-25T02:22:50;99103.06;;;11.77;42.39
74881;BME280;63427;49.654;6.596;2023-04-25T02:25:15;99105.21;;;11.70;41.95
74881;BME280;63427;49.654;6.596;2023-04-25T02:27:40;99102.01;;;12.02;41.41
74881;BME280;63427;49.654;6.596;2023-04-25T02:30:07;99100.59;;;11.59;41.98
74881;BME280;63427;49.654;6.596;2023-04-25T02:32:32;99104.90;;;11.62;42.16
74881;BME280;63427;49.654;6.596;2023-04-25T02:34:58;99104.75;;;11.48;41.13
74881;BME280;63427;49.654;6.596;2023-04-25T02:37:23;99103.51;;;11.78;41.11
74881;BME280;63427;49.654;6.596;2023-04-25T02:39:48;99103.61;;;11.66;41.78
74881;BME280;63427;49.654;6.596;2023-04-25T02:42:14;99101.30;;;11.71;41.66
74881;BME280;63427;49.654;6.596;2023-04-25T02:44:40;99097.64;;;11.64;41.50
74881;BME280;63427;49.654;6.596;2023-04-25T02:47:05;99094.39;;;11.61;41.00
74881;BME280;63427;49.654;6.596;2023-04-25T02:49:30;99091.67;;;11.61;41.18
74881;BME280;63427;49.654;6.596;2023-04-25T02:51:57;99091.35;;;11.63;41.19
74881;BME280;63427;49.654;6.596;2023-04-25T02:54:21;99089.45;;;11.68;41.56
74881;BME280;63427;49.654;6.596;2023-04-25T02:56:47;99089.74;;;11.77;42.01
74881;BME280;63427;49.654;6.596;2023-04-25T02:59:12;99092.15;;;11.58;42.50
74881;BME280;63427;49.654;6.596;2023-04-25T03:01:38;99087.69;;;11.73;41.50
74881;BME280;63427;49.654;6.596;2023-04-25T03:04:04;99085.65;;;11.61;42.51
74881;BME280;63427;49.654;6.596;2023-04-25T03:06:29;99084.51;;;11.57;42.80
74881;BME280;63427;49.654;6.596;2023-04-25T03:08:55;99089.15;;;11.68;42.52
74881;BME280;63427;49.654;6.596;2023-04-25T03:11:20;99094.47;;;11.65;41.44
74881;BME280;63427;49.654;6.596;2023-04-25T03:13:46;99101.97;;;11.55;42.29
74881;BME280;63427;49.654;6.596;2023-04-25T03:16:11;99104.77;;;11.20;42.70
74881;BME280;63427;49.654;6.596;2023-04-25T03:18:37;99105.77;;;11.67;42.90
74881;BME280;63427;49.654;6.596;2023-04-25T03:21:02;99104.12;;;11.52;42.35
74881;BME280;63427;49.654;6.596;2023-04-25T03:23:28;99103.55;;;11.90;42.01
74881;BME280;63427;49.654;6.596;2023-04-25T03:25:54;99104.12;;;11.83;42.76
74881;BME280;63427;49.654;6.596;2023-04-25T03:28:19;99102.30;;;11.65;42.24
74881;BME280;63427;49.654;6.596;2023-04-25T03:30:44;99099.60;;;11.62;41.70
74881;BME280;63427;49.654;6.596;2023-04-25T03:33:10;99098.07;;;11.56;41.91
74881;BME280;63427;49.654;6.596;2023-04-25T03:35:35;99100.23;;;12.06;42.10
74881;BME280;63427;49.654;6.596;2023-04-25T03:38:01;99100.09;;;11.73;41.47
74881;BME280;63427;49.654;6.596;2023-04-25T03:40:26;99099.33;;;11.93;42.11
74881;BME280;63427;49.654;6.596;2023-04-25T03:42:52;99095.43;;;11.60;42.51
74881;BME280;63427;49.654;6.596;2023-04-25T03:45:17;99097.72;;;11.69;42.68
74881;BME280;63427;49.654;6.596;2023-04-25T03:47:43;99101.19;;;11.59;43.10
74881;BME280;63427;49.654;6.596;2023-04-25T03:50:09;99101.60;;;11.76;43.07
74881;BME280;63427;49.654;6.596;2023-04-25T03:52:34;99103.19;;;11.42;42.78
74881;BME280;63427;49.654;6.596;2023-04-25T03:55:00;99103.74;;;11.64;42.68
74881;BME280;63427;49.654;6.596;2023-04-25T03:57:25;99105.28;;;11.58;42.70
74881;BME280;63427;49.654;6.596;2023-04-25T03:59:50;99104.30;;;11.43;42.58
74881;BME280;63427;49.654;6.596;2023-04-25T04:02:17;99106.46;;;11.78;41.36
74881;BME280;63427;49.654;6.596;2023-04-25T04:04:42;99110.00;;;11.73;41.55
74881;BME280;63427;49.654;6.596;2023-04-25T04:07:08;99106.49;;;11.52;42.27
74881;BME280;63427;49.654;6.596;2023-04-25T04:09:33;99108.74;;;11.64;42.58
74881;BME280;63427;49.654;6.596;2023-04-25T04:11:58;99108.48;;;11.71;41.14
74881;BME280;63427;49.654;6.596;2023-04-25T04:14:24;99108.59;;;11.64;42.25
74881;BME280;63427;49.654;6.596;2023-04-25T04:16:51;99107.80;;;11.38;42.73
74881;BME280;63427;49.654;6.596;2023-04-25T04:19:15;99107.58;;;11.61;42.80
74881;BME280;63427;49.654;6.596;2023-04-25T04:21:40;99110.79;;;11.85;42.66
74881;BME280;63427;49.654;6.596;2023-04-25T04:24:06;99111.23;;;11.52;43.13
74881;BME280;63427;49.654;6.596;2023-04-25T04:26:37;99113.54;;;11.42;43.42
74881;BME280;63427;49.654;6.596;2023-04-25T04:28:57;99111.25;;;11.68;41.81
74881;BME280;63427;49.654;6.596;2023-04-25T04:31:23;99118.02;;;11.52;41.17
74881;BME280;63427;49.654;6.596;2023-04-25T04:33:49;99122.52;;;11.46;41.46
74881;BME280;63427;49.654;6.596;2023-04-25T04:36:14;99123.34;;;11.44;42.57
74881;BME280;63427;49.654;6.596;2023-04-25T04:38:39;99122.81;;;11.37;41.88
74881;BME280;63427;49.654;6.596;2023-04-25T04:41:05;99127.77;;;11.53;41.30
74881;BME280;63427;49.654;6.596;2023-04-25T04:43:35;99131.97;;;11.56;42.65
74881;BME280;63427;49.654;6.596;2023-04-25T04:45:56;99137.89;;;11.37;42.75
74881;BME280;63427;49.654;6.596;2023-04-25T04:48:22;99140.61;;;11.66;42.02
74881;BME280;63427;49.654;6.596;2023-04-25T04:50:48;99137.92;;;11.40;42.91
74881;BME280;63427;49.654;6.596;2023-04-25T04:53:13;99143.49;;;11.40;42.96
74881;BME280;63427;49.654;6.596;2023-04-25T04:55:39;99143.07;;;11.69;42.91
74881;BME280;63427;49.654;6.596;2023-04-25T04:58:04;99142.54;;;11.65;42.63
74881;BME280;63427;49.654;6.596;2023-04-25T05:00:30;99144.99;;;11.61;43.00
74881;BME280;63427;49.654;6.596;2023-04-25T05:02:56;99145.16;;;11.34;43.12
74881;BME280;63427;49.654;6.596;2023-04-25T05:05:21;99145.65;;;11.35;43.34
74881;BME280;63427;49.654;6.596;2023-04-25T05:07:46;99146.49;;;11.43;42.67
74881;BME280;63427;49.654;6.596;2023-04-25T05:10:11;99144.60;;;11.42;42.46
74881;BME280;63427;49.654;6.596;2023-04-25T05:12:37;99147.60;;;11.79;41.96
74881;BME280;63427;49.654;6.596;2023-04-25T05:15:03;99148.55;;;11.46;42.51
74881;BME280;63427;49.654;6.596;2023-04-25T05:17:27;99146.08;;;11.29;42.85
74881;BME280;63427;49.654;6.596;2023-04-25T05:19:53;99151.09;;;11.40;42.59
74881;BME280;63427;49.654;6.596;2023-04-25T05:22:19;99156.60;;;11.54;42.12
74881;BME280;63427;49.654;6.596;2023-04-25T05:24:44;99162.33;;;11.79;42.39
74881;BME280;63427;49.654;6.596;2023-04-25T05:27:17;99164.66;;;11.69;42.23
74881;BME280;63427;49.654;6.596;2023-04-25T05:29:36;99167.33;;;11.62;42.86
74881;BME280;63427;49.654;6.596;2023-04-25T05:32:01;99170.22;;;11.85;42.60
74881;BME280;63427;49.654;6.596;2023-04-25T05:34:27;99169.62;;;11.94;41.80
74881;BME280;63427;49.654;6.596;2023-04-25T05:36:52;99168.00;;;11.76;42.37
74881;BME280;63427;49.654;6.596;2023-04-25T05:39:18;99169.38;;;12.03;42.35
74881;BME280;63427;49.654;6.596;2023-04-25T05:41:44;99170.71;;;12.00;42.16
74881;BME280;63427;49.654;6.596;2023-04-25T05:44:09;99171.06;;;11.85;41.60
74881;BME280;63427;49.654;6.596;2023-04-25T05:46:35;99174.40;;;12.17;42.09
74881;BME280;63427;49.654;6.596;2023-04-25T05:49:00;99171.94;;;11.69;40.65
74881;BME280;63427;49.654;6.596;2023-04-25T05:51:26;99172.78;;;12.01;40.56
74881;BME280;63427;49.654;6.596;2023-04-25T05:53:51;99170.96;;;11.75;40.92
74881;BME280;63427;49.654;6.596;2023-04-25T05:56:17;99172.29;;;12.38;40.04
74881;BME280;63427;49.654;6.596;2023-04-25T05:58:43;99174.45;;;12.35;40.64
74881;BME280;63427;49.654;6.596;2023-04-25T06:01:08;99181.74;;;12.49;40.17
74881;BME280;63427;49.654;6.596;2023-04-25T06:03:34;99180.53;;;12.12;40.34
74881;BME280;63427;49.654;6.596;2023-04-25T06:05:59;99185.93;;;11.98;40.76
74881;BME280;63427;49.654;6.596;2023-04-25T06:08:27;99191.39;;;12.02;40.95
74881;BME280;63427;49.654;6.596;2023-04-25T06:10:50;99193.93;;;12.39;40.80
74881;BME280;63427;49.654;6.596;2023-04-25T06:13:16;99196.65;;;12.41;40.51
74881;BME280;63427;49.654;6.596;2023-04-25T06:15:41;99195.26;;;12.05;40.63
74881;BME280;63427;49.654;6.596;2023-04-25T06:18:07;99198.52;;;12.15;40.98
74881;BME280;63427;49.654;6.596;2023-04-25T06:20:32;99198.90;;;11.93;41.09
74881;BME280;63427;49.654;6.596;2023-04-25T06:22:58;99203.13;;;12.24;40.70
74881;BME280;63427;49.654;6.596;2023-04-25T06:25:23;99200.63;;;12.02;40.30
74881;BME280;63427;49.654;6.596;2023-04-25T06:27:49;99200.87;;;12.11;40.30
74881;BME280;63427;49.654;6.596;2023-04-25T06:30:14;99205.01;;;12.29;40.12
74881;BME280;63427;49.654;6.596;2023-04-25T06:32:40;99206.90;;;12.26;40.39
74881;BME280;63427;49.654;6.596;2023-04-25T06:35:07;99209.68;;;12.01;40.63
74881;BME280;63427;49.654;6.596;2023-04-25T06:37:31;99211.86;;;12.36;40.39
74881;BME280;63427;49.654;6.596;2023-04-25T06:39:57;99212.75;;;12.45;39.84
74881;BME280;63427;49.654;6.596;2023-04-25T06:42:22;99220.41;;;12.15;40.46
74881;BME280;63427;49.654;6.596;2023-04-25T06:44:47;99222.36;;;12.28;40.90
74881;BME280;63427;49.654;6.596;2023-04-25T06:47:13;99229.81;;;12.02;40.77
74881;BME280;63427;49.654;6.596;2023-04-25T06:49:38;99226.93;;;12.41;40.22
74881;BME280;63427;49.654;6.596;2023-04-25T06:52:04;99227.82;;;12.09;40.96
74881;BME280;63427;49.654;6.596;2023-04-25T06:54:29;99233.84;;;12.06;41.00
74881;BME280;63427;49.654;6.596;2023-04-25T06:56:55;99234.67;;;12.04;40.80
74881;BME280;63427;49.654;6.596;2023-04-25T06:59:20;99237.26;;;12.19;40.45
74881;BME280;63427;49.654;6.596;2023-04-25T07:01:46;99237.64;;;12.24;40.50
74881;BME280;63427;49.654;6.596;2023-04-25T07:04:11;99236.48;;;12.20;40.77
74881;BME280;63427;49.654;6.596;2023-04-25T07:06:37;99242.31;;;12.20;40.81
74881;BME280;63427;49.654;6.596;2023-04-25T07:09:02;99245.28;;;12.14;41.06
74881;BME280;63427;49.654;6.596;2023-04-25T07:11:27;99251.24;;;12.11;40.42
74881;BME280;63427;49.654;6.596;2023-04-25T07:13:52;99253.78;;;12.31;40.25
74881;BME280;63427;49.654;6.596;2023-04-25T07:16:23;99254.66;;;11.83;39.07
74881;BME280;63427;49.654;6.596;2023-04-25T07:18:43;99263.24;;;11.82;37.66
74881;BME280;63427;49.654;6.596;2023-04-25T07:21:09;99261.95;;;11.35;38.52
74881;BME280;63427;49.654;6.596;2023-04-25T07:23:35;99263.21;;;11.90;38.88
74881;BME280;63427;49.654;6.596;2023-04-25T07:26:00;99266.50;;;11.74;38.84
74881;BME280;63427;49.654;6.596;2023-04-25T07:28:26;99273.23;;;11.80;39.02
74881;BME280;63427;49.654;6.596;2023-04-25T07:30:51;99272.01;;;11.85;38.76
74881;BME280;63427;49.654;6.596;2023-04-25T07:33:17;99275.96;;;11.67;38.93
74881;BME280;63427;49.654;6.596;2023-04-25T07:35:43;99279.76;;;11.82;39.31
74881;BME280;63427;49.654;6.596;2023-04-25T07:38:08;99286.43;;;11.83;38.43
74881;BME280;63427;49.654;6.596;2023-04-25T07:40:34;99291.87;;;12.38;38.31
74881;BME280;63427;49.654;6.596;2023-04-25T07:42:59;99294.10;;;12.07;38.53
74881;BME280;63427;49.654;6.596;2023-04-25T07:45:24;99298.44;;;12.24;38.39
74881;BME280;63427;49.654;6.596;2023-04-25T07:47:49;99296.21;;;12.21;38.32
74881;BME280;63427;49.654;6.596;2023-04-25T07:50:15;99299.90;;;12.17;38.07
74881;BME280;63427;49.654;6.596;2023-04-25T07:52:41;99301.98;;;12.43;37.94
74881;BME280;63427;49.654;6.596;2023-04-25T07:55:06;99303.82;;;12.33;37.52
74881;BME280;63427;49.654;6.596;2023-04-25T07:57:31;99306.73;;;12.19;37.37
74881;BME280;63427;49.654;6.596;2023-04-25T07:59:57;99312.99;;;12.53;37.28
74881;BME280;63427;49.654;6.596;2023-04-25T08:02:22;99317.34;;;12.62;37.38
74881;BME280;63427;49.654;6.596;2023-04-25T08:04:48;99322.32;;;12.09;37.37
74881;BME280;63427;49.654;6.596;2023-04-25T08:07:13;99328.91;;;12.28;37.13
74881;BME280;63427;49.654;6.596;2023-04-25T08:09:39;99335.06;;;12.20;36.69
74881;BME280;63427;49.654;6.596;2023-04-25T08:12:05;99341.17;;;12.38;37.16
74881;BME280;63427;49.654;6.596;2023-04-25T08:14:30;99344.58;;;12.04;36.27
74881;BME280;63427;49.654;6.596;2023-04-25T08:16:56;99345.76;;;12.34;36.82
74881;BME280;63427;49.654;6.596;2023-04-25T08:19:21;99349.65;;;12.15;36.85
74881;BME280;63427;49.654;6.596;2023-04-25T08:21:47;99357.08;;;12.29;36.53
74881;BME280;63427;49.654;6.596;2023-04-25T08:24:12;99360.97;;;12.37;36.57
74881;BME280;63427;49.654;6.596;2023-04-25T08:26:38;99363.96;;;12.40;36.90
74881;BME280;63427;49.654;6.596;2023-04-25T08:29:03;99366.15;;;12.43;36.45
74881;BME280;63427;49.654;6.596;2023-04-25T08:31:29;99369.38;;;12.40;35.84
74881;BME280;63427;49.654;6.596;2023-04-25T08:33:54;99372.10;;;12.37;36.40
74881;BME280;63427;49.654;6.596;2023-04-25T08:36:20;99377.06;;;12.51;37.09
74881;BME280;63427;49.654;6.596;2023-04-25T08:38:45;99378.04;;;12.55;36.70
74881;BME280;63427;49.654;6.596;2023-04-25T08:41:11;99378.36;;;12.67;37.00
74881;BME280;63427;49.654;6.596;2023-04-25T08:43:37;99382.10;;;12.74;38.33
74881;BME280;63427;49.654;6.596;2023-04-25T08:46:02;99386.19;;;12.76;37.85
74881;BME280;63427;49.654;6.596;2023-04-25T08:48:28;99388.13;;;13.10;36.58
74881;BME280;63427;49.654;6.596;2023-04-25T08:50:54;99392.91;;;13.29;36.34
74881;BME280;63427;49.654;6.596;2023-04-25T08:53:23;99397.09;;;13.59;36.78
74881;BME280;63427;49.654;6.596;2023-04-25T08:55:45;99397.54;;;13.18;36.28
74881;BME280;63427;49.654;6.596;2023-04-25T08:58:11;99404.30;;;13.36;35.80
74881;BME280;63427;49.654;6.596;2023-04-25T09:00:35;99407.90;;;13.94;36.28
74881;BME280;63427;49.654;6.596;2023-04-25T09:03:00;99410.34;;;13.42;36.69
74881;BME280;63427;49.654;6.596;2023-04-25T09:05:25;99414.74;;;13.77;35.33
74881;BME280;63427;49.654;6.596;2023-04-25T09:07:51;99416.67;;;13.38;34.90
74881;BME280;63427;49.654;6.596;2023-04-25T09:10:17;99422.86;;;13.40;34.80
74881;BME280;63427;49.654;6.596;2023-04-25T09:12:42;99425.05;;;13.14;36.50
74881;BME280;63427;49.654;6.596;2023-04-25T09:15:09;99425.24;;;13.01;35.22
74881;BME280;63427;49.654;6.596;2023-04-25T09:17:32;99432.52;;;13.48;35.76
74881;BME280;63427;49.654;6.596;2023-04-25T09:20:06;99440.29;;;13.58;35.51
74881;BME280;63427;49.654;6.596;2023-04-25T09:22:24;99435.40;;;14.08;35.98
74881;BME280;63427;49.654;6.596;2023-04-25T09:24:49;99436.17;;;13.42;34.73
74881;BME280;63427;49.654;6.596;2023-04-25T09:27:19;99435.89;;;14.17;35.82
74881;BME280;63427;49.654;6.596;2023-04-25T09:29:40;99438.03;;;14.81;35.01
74881;BME280;63427;49.654;6.596;2023-04-25T09:32:15;99443.94;;;15.07;35.75
74881;BME280;63427;49.654;6.596;2023-04-25T09:34:38;99445.68;;;15.07;34.67
74881;BME280;63427;49.654;6.596;2023-04-25T09:36:55;99446.88;;;15.03;32.98
74881;BME280;63427;49.654;6.596;2023-04-25T09:39:21;99449.58;;;15.69;32.33
74881;BME280;63427;49.654;6.596;2023-04-25T09:41:46;99453.00;;;15.82;32.16
74881;BME280;63427;49.654;6.596;2023-04-25T09:44:13;99453.01;;;15.06;32.42
74881;BME280;63427;49.654;6.596;2023-04-25T09:46:37;99454.19;;;15.43;32.00
74881;BME280;63427;49.654;6.596;2023-04-25T09:49:07;99458.41;;;15.39;30.93
74881;BME280;63427;49.654;6.596;2023-04-25T09:51:28;99462.86;;;15.41;31.25
74881;BME280;63427;49.654;6.596;2023-04-25T09:53:53;99467.70;;;15.32;30.88
74881;BME280;63427;49.654;6.596;2023-04-25T09:56:20;99470.79;;;15.16;30.99
74881;BME280;63427;49.654;6.596;2023-04-25T09:58:44;99472.70;;;15.28;30.60
74881;BME280;63427;49.654;6.596;2023-04-25T10:01:10;99477.38;;;14.50;31.60
74881;BME280;63427;49.654;6.596;2023-04-25T10:03:36;99483.21;;;14.42;32.26
74881;BME280;63427;49.654;6.596;2023-04-25T10:06:01;99485.28;;;14.46;31.74
74881;BME280;63427;49.654;6.596;2023-04-25T10:08:29;99485.89;;;14.79;32.05
74881;BME280;63427;49.654;6.596;2023-04-25T10:10:51;99489.10;;;14.60;31.65
74881;BME280;63427;49.654;6.596;2023-04-25T10:13:16;99490.95;;;14.80;31.55
74881;BME280;63427;49.654;6.596;2023-04-25T10:15:42;99493.08;;;15.02;32.75
74881;BME280;63427;49.654;6.596;2023-04-25T10:18:07;99492.64;;;15.13;31.96
74881;BME280;63427;49.654;6.596;2023-04-25T10:20:32;99495.38;;;15.30;31.34
74881;BME280;63427;49.654;6.596;2023-04-25T10:23:03;99498.69;;;15.15;31.34
74881;BME280;63427;49.654;6.596;2023-04-25T10:25:23;99502.03;;;15.16;31.47
74881;BME280;63427;49.654;6.596;2023-04-25T10:27:51;99504.24;;;15.33;31.24
74881;BME280;63427;49.654;6.596;2023-04-25T10:30:15;99501.51;;;15.59;30.66
74881;BME280;63427;49.654;6.596;2023-04-25T10:32:38;99502.40;;;15.78;30.07
74881;BME280;63427;49.654;6.596;2023-04-25T10:35:12;99500.70;;;15.40;29.97
74881;BME280;63427;49.654;6.596;2023-04-25T10:37:30;99503.62;;;15.39;30.53
74881;BME280;63427;49.654;6.596;2023-04-25T10:59:18;99486.99;;;16.88;28.06
74881;BME280;63427;49.654;6.596;2023-04-25T11:01:44;99488.84;;;17.25;27.41
74881;BME280;63427;49.654;6.596;2023-04-25T11:04:20;99491.21;;;17.26;29.31
74881;BME280;63427;49.654;6.596;2023-04-25T11:06:42;99494.81;;;16.87;27.48
74881;BME280;63427;49.654;6.596;2023-04-25T11:09:00;99495.23;;;16.93;26.21
74881;BME280;63427;49.654;6.596;2023-04-25T11:11:23;99492.04;;;17.14;26.10
74881;BME280;63427;49.654;6.596;2023-04-25T11:16:14;99490.65;;;18.26;24.86
74881;BME280;63427;49.654;6.596;2023-04-25T11:18:41;99494.85;;;18.35;25.51
74881;BME280;63427;49.654;6.596;2023-04-25T11:21:04;99497.50;;;19.34;25.14
74881;BME280;63427;49.654;6.596;2023-04-25T11:23:30;99495.64;;;19.29;23.59
74881;BME280;63427;49.654;6.596;2023-04-25T11:25:56;99502.22;;;18.60;23.20
74881;BME280;63427;49.654;6.596;2023-04-25T11:28:21;99504.59;;;18.85;25.98
74881;BME280;63427;49.654;6.596;2023-04-25T11:30:48;99507.57;;;18.76;23.81
74881;BME280;63427;49.654;6.596;2023-04-25T11:33:11;99507.05;;;18.80;23.32
74881;BME280;63427;49.654;6.596;2023-04-25T11:35:36;99507.18;;;18.32;23.37
74881;BME280;63427;49.654;6.596;2023-04-25T11:38:02;99502.53;;;19.01;23.40
74881;BME280;63427;49.654;6.596;2023-04-25T11:40:27;99501.41;;;19.52;23.30
74881;BME280;63427;49.654;6.596;2023-04-25T11:42:52;99497.65;;;19.05;24.28
74881;BME280;63427;49.654;6.596;2023-04-25T11:45:17;99492.57;;;19.32;24.12
74881;BME280;63427;49.654;6.596;2023-04-25T11:47:43;99496.24;;;20.08;22.31
74881;BME280;63427;49.654;6.596;2023-04-25T11:50:09;99488.58;;;20.59;21.89
74881;BME280;63427;49.654;6.596;2023-04-25T11:52:38;99491.13;;;20.67;22.51
74881;BME280;63427;49.654;6.596;2023-04-25T11:54:58;99489.73;;;21.15;20.85
74881;BME280;63427;49.654;6.596;2023-04-25T11:57:23;99489.58;;;22.20;20.53
74881;BME280;63427;49.654;6.596;2023-04-25T11:59:48;99493.45;;;21.08;20.36
74881;BME280;63427;49.654;6.596;2023-04-25T12:02:24;99496.17;;;21.43;20.27
74881;BME280;63427;49.654;6.596;2023-04-25T12:04:41;99496.91;;;21.52;20.65
74881;BME280;63427;49.654;6.596;2023-04-25T12:07:03;99505.22;;;21.47;20.24
74881;BME280;63427;49.654;6.596;2023-04-25T12:09:30;99509.23;;;21.54;20.06
74881;BME280;63427;49.654;6.596;2023-04-25T12:11:55;99511.09;;;21.45;19.58
74881;BME280;63427;49.654;6.596;2023-04-25T12:14:23;99514.13;;;21.59;21.33
74881;BME280;63427;49.654;6.596;2023-04-25T12:16:46;99513.38;;;21.29;20.12
74881;BME280;63427;49.654;6.596;2023-04-25T12:19:09;99518.47;;;20.59;21.58
74881;BME280;63427;49.654;6.596;2023-04-25T12:21:34;99531.51;;;21.13;20.45
74881;BME280;63427;49.654;6.596;2023-04-25T12:24:26;99531.23;;;20.65;20.11
74881;BME280;63427;49.654;6.596;2023-04-25T12:26:24;99531.70;;;20.90;21.77
74881;BME280;63427;49.654;6.596;2023-04-25T12:28:49;99533.59;;;21.40;19.92
74881;BME280;63427;49.654;6.596;2023-04-25T12:31:14;99536.00;;;20.63;20.14
74881;BME280;63427;49.654;6.596;2023-04-25T12:33:39;99539.43;;;19.88;20.81
74881;BME280;63427;49.654;6.596;2023-04-25T12:36:06;99543.34;;;20.45;21.54
74881;BME280;63427;49.654;6.596;2023-04-25T12:38:31;99546.61;;;19.98;21.34
74881;BME280;63427;49.654;6.596;2023-04-25T12:40:56;99544.27;;;20.39;21.46
74881;BME280;63427;49.654;6.596;2023-04-25T12:43:20;99549.27;;;20.28;20.56
74881;BME280;63427;49.654;6.596;2023-04-25T12:45:47;99551.72;;;20.11;20.33
74881;BME280;63427;49.654;6.596;2023-04-25T12:48:11;99554.75;;;20.26;21.02
74881;BME280;63427;49.654;6.596;2023-04-25T12:50:36;99552.90;;;20.11;21.01
74881;BME280;63427;49.654;6.596;2023-04-25T12:53:01;99551.55;;;19.98;20.15
74881;BME280;63427;49.654;6.596;2023-04-25T12:55:26;99542.83;;;20.18;20.65
74881;BME280;63427;49.654;6.596;2023-04-25T12:57:51;99540.37;;;20.19;20.16
74881;BME280;63427;49.654;6.596;2023-04-25T13:00:18;99538.11;;;20.07;20.54
74881;BME280;63427;49.654;6.596;2023-04-25T13:02:42;99540.72;;;20.28;22.00
74881;BME280;63427;49.654;6.596;2023-04-25T13:05:07;99540.90;;;20.12;21.94
74881;BME280;63427;49.654;6.596;2023-04-25T13:07:32;99538.37;;;19.82;21.04
74881;BME280;63427;49.654;6.596;2023-04-25T13:09:57;99536.47;;;20.04;20.71
74881;BME280;63427;49.654;6.596;2023-04-25T13:12:23;99536.80;;;19.68;21.36
74881;BME280;63427;49.654;6.596;2023-04-25T13:14:47;99537.11;;;20.23;21.34
74881;BME280;63427;49.654;6.596;2023-04-25T13:17:13;99540.38;;;21.05;19.91
74881;BME280;63427;49.654;6.596;2023-04-25T13:19:38;99533.51;;;21.51;18.90
74881;BME280;63427;49.654;6.596;2023-04-25T13:22:03;99538.39;;;22.33;19.68